Time;durP1;ratioP1;P1;durP2;ratioP2;P2;SDS_P1;SDS_P2;PMS_P1;PMS_P2;Temp;Humidity;BMP_temperature;BMP_pressure;BME280_temperature;BME280_humidity;BME280_pressure;Samples;Min_cycle;Max_cycle;Signal;HPM_P1;HPM_P2
2022/06/29 00:03:09;;;;;;;2.50;2.30;;;;;;;;;;10634352;27;20046;-68
2022/06/29 00:08:12;;;;;;;2.13;2.03;;;;;;;;;;10617742;28;20035;-67
2022/06/29 00:13:15;;;;;;;3.47;2.40;;;;;;;;;;10625766;27;20063;-67
2022/06/29 00:18:18;;;;;;;3.10;2.80;;;;;;;;;;10616904;27;20047;-68
2022/06/29 00:23:20;;;;;;;2.75;2.55;;;;;;;;;;10628735;27;20092;-68
2022/06/29 00:28:24;;;;;;;3.38;3.08;;;;;;;;;;10617135;27;20039;-68
2022/06/29 00:33:27;;;;;;;;;;;;;;;;;;10621369;27;20047;-68
2022/06/29 00:38:30;;;;;;;2.90;2.70;;;;;;;;;;10633614;27;19931;-68
2022/06/29 00:43:41;;;;;;;3.00;2.80;;;;;;;;;;10582357;27;20066;-67
2022/06/29 00:48:43;;;;;;;5.15;3.53;;;;;;;;;;10658816;27;20039;-67
2022/06/29 00:53:46;;;;;;;3.67;3.38;;;;;;;;;;10657131;27;20051;-68
2022/06/29 00:58:54;;;;;;;3.83;3.53;;;;;;;;;;10658610;27;20039;-68
2022/06/29 01:03:56;;;;;;;3.08;2.85;;;;;;;;;;10616735;27;20066;-68
2022/06/29 01:08:58;;;;;;;3.50;3.20;;;;;;;;;;10575022;28;20048;-68
2022/06/29 01:14:02;;;;;;;3.95;3.65;;;;;;;;;;10573522;27;20044;-67
2022/06/29 01:19:04;;;;;;;6.20;4.35;;;;;;;;;;10602570;27;20048;-68
2022/06/29 01:24:08;;;;;;;5.00;3.92;;;;;;;;;;10623642;27;20050;-68
2022/06/29 01:29:11;;;;;;;7.30;3.28;;;;;;;;;;10656759;27;20069;-68
2022/06/29 01:34:14;;;;;;;4.10;3.80;;;;;;;;;;10627224;28;20067;-66
2022/06/29 01:39:18;;;;;;;4.40;4.10;;;;;;;;;;10643507;28;20058;-67
2022/06/29 01:44:21;;;;;;;4.57;4.28;;;;;;;;;;10642597;28;20058;-67
2022/06/29 01:49:23;;;;;;;4.65;4.30;;;;;;;;;;10657364;27;20061;-67
2022/06/29 01:54:27;;;;;;;4.80;4.40;;;;;;;;;;10634998;27;20047;-68
2022/06/29 01:59:29;;;;;;;5.13;4.43;;;;;;;;;;10632568;27;20046;-67
2022/06/29 02:04:31;;;;;;;5.00;4.50;;;;;;;;;;10657006;27;20324;-68
2022/06/29 02:09:35;;;;;;;5.05;4.55;;;;;;;;;;10625474;28;20078;-68
2022/06/29 02:14:37;;;;;;;4.60;4.17;;;;;;;;;;10614079;28;20051;-68
2022/06/29 02:19:39;;;;;;;5.15;4.60;;;;;;;;;;10629776;27;20035;-67
2022/06/29 02:24:43;;;;;;;4.43;3.92;;;;;;;;;;10656175;27;20046;-68
2022/06/29 02:29:46;;;;;;;3.95;3.65;;;;;;;;;;10639262;28;20058;-68
2022/06/29 02:34:48;;;;;;;4.70;4.25;;;;;;;;;;10601828;28;20078;-67
2022/06/29 02:39:52;;;;;;;4.50;4.15;;;;;;;;;;10639090;27;20088;-67
2022/06/29 02:44:54;;;;;;;4.90;4.43;;;;;;;;;;10567357;27;20048;-67
2022/06/29 02:49:56;;;;;;;4.07;3.67;;;;;;;;;;10622787;27;20047;-67
2022/06/29 02:55:00;;;;;;;4.32;3.92;;;;;;;;;;10657016;27;20043;-68
2022/06/29 03:00:02;;;;;;;3.83;3.53;;;;;;;;;;10606399;27;20048;-68
2022/06/29 03:05:05;;;;;;;2.95;2.75;;;;;;;;;;10621183;27;20043;-68
2022/06/29 03:10:09;;;;;;;11.65;10.95;;;;;;;;;;10662777;27;20233;-68
2022/06/29 03:15:11;;;;;;;13.50;12.60;;;;;;;;;;10620543;28;20051;-67
2022/06/29 03:20:14;;;;;;;12.30;11.40;;;;;;;;;;10564347;28;20322;-68
2022/06/29 03:25:18;;;;;;;14.07;13.18;;;;;;;;;;10657739;27;20070;-67
2022/06/29 03:30:20;;;;;;;14.75;13.70;;;;;;;;;;10649555;27;20043;-68
2022/06/29 03:35:23;;;;;;;11.05;10.25;;;;;;;;;;10571590;27;20055;-68
2022/06/29 03:40:27;;;;;;;13.55;11.93;;;;;;;;;;10653052;27;20047;-68
2022/06/29 03:45:29;;;;;;;12.20;11.40;;;;;;;;;;10581911;27;20088;-68
2022/06/29 03:50:31;;;;;;;10.40;9.80;;;;;;;;;;10659951;27;20042;-68
2022/06/29 03:55:35;;;;;;;12.17;11.57;;;;;;;;;;10609130;27;20047;-68
2022/06/29 04:00:37;;;;;;;11.55;10.95;;;;;;;;;;10627152;27;20054;-69
2022/06/29 20:02:43;;;;;;;3.40;3.10;;;;;;;;;;10619451;27;20428;-68
2022/06/29 20:07:46;;;;;;;4.15;3.15;;;;;;;;;;10587357;28;20056;-69
2022/06/29 20:12:48;;;;;;;6.32;2.95;;;;;;;;;;10598324;28;20046;-68
2022/06/29 20:17:53;;;;;;;2.20;2.00;;;;;;;;;;10609644;28;20044;-69
2022/06/29 20:22:55;;;;;;;2.47;1.77;;;;;;;;;;10607762;28;20048;-69
2022/06/29 20:27:57;;;;;;;1.98;1.70;;;;;;;;;;10607049;28;20040;-69
2022/06/29 20:33:00;;;;;;;2.15;1.95;;;;;;;;;;10608149;28;20048;-68
2022/06/29 20:38:03;;;;;;;4.40;2.60;;;;;;;;;;10608968;28;20258;-68
2022/06/29 20:43:05;;;;;;;2.30;2.15;;;;;;;;;;10594208;28;20220;-69
2022/06/29 20:48:09;;;;;;;2.47;2.20;;;;;;;;;;10608366;28;20320;-68
2022/06/29 20:53:12;;;;;;;1.77;1.67;;;;;;;;;;10608033;28;20047;-69
2022/06/29 20:58:17;;;;;;;3.95;2.38;;;;;;;;;;10604620;28;20066;-68
2022/06/29 21:03:21;;;;;;;2.50;2.30;;;;;;;;;;10606337;28;20040;-69
2022/06/29 21:08:24;;;;;;;2.25;2.05;;;;;;;;;;10607297;28;20044;-69
2022/06/29 21:13:27;;;;;;;2.23;1.90;;;;;;;;;;10581028;28;20055;-69
2022/06/29 21:18:30;;;;;;;3.20;2.53;;;;;;;;;;10567779;28;20044;-69
2022/06/29 21:23:32;;;;;;;1.75;1.65;;;;;;;;;;10570554;28;20040;-68
2022/06/29 21:28:34;;;;;;;2.30;2.10;;;;;;;;;;10578494;28;20381;-68
2022/06/29 21:33:38;;;;;;;1.85;1.75;;;;;;;;;;10554490;28;20040;-68
2022/06/29 21:38:40;;;;;;;2.47;2.08;;;;;;;;;;10559889;28;20044;-68
2022/06/29 21:43:42;;;;;;;1.38;1.38;;;;;;;;;;10564609;28;20055;-68
2022/06/29 21:54:05;;;;;;;1.73;1.63;;;;;;;;;;10551507;28;20085;-68
2022/06/29 21:59:08;;;;;;;2.28;2.08;;;;;;;;;;10573203;28;20051;-68
2022/06/29 22:04:12;;;;;;;1.83;1.73;;;;;;;;;;10555520;28;20037;-68
2022/06/29 22:09:14;;;;;;;2.15;2.00;;;;;;;;;;10543484;28;20060;-68
2022/06/29 22:14:16;;;;;;;1.95;1.65;;;;;;;;;;10563279;28;20331;-68
2022/06/29 22:19:20;;;;;;;1.75;1.60;;;;;;;;;;10576053;28;20355;-68
2022/06/29 22:24:22;;;;;;;1.98;1.85;;;;;;;;;;10530049;28;20217;-67
2022/06/29 22:29:24;;;;;;;1.88;1.77;;;;;;;;;;10565672;28;20040;-68
2022/06/29 22:34:28;;;;;;;2.33;2.13;;;;;;;;;;10576079;28;20075;-69
2022/06/29 22:39:30;;;;;;;2.47;2.00;;;;;;;;;;10575898;28;20051;-69
2022/06/29 22:44:32;;;;;;;2.22;2.00;;;;;;;;;;10561590;28;20357;-67
2022/06/29 22:49:36;;;;;;;2.20;2.00;;;;;;;;;;10545662;28;20041;-68
2022/06/29 22:54:39;;;;;;;2.65;2.45;;;;;;;;;;10557964;28;20040;-69
2022/06/29 22:59:41;;;;;;;3.15;2.38;;;;;;;;;;10568869;28;20063;-68
2022/06/29 23:04:45;;;;;;;2.67;2.47;;;;;;;;;;10574499;28;20046;-68
2022/06/29 23:09:47;;;;;;;2.42;2.22;;;;;;;;;;10574138;28;20051;-69
2022/06/29 23:14:49;;;;;;;3.00;2.42;;;;;;;;;;10574090;28;20048;-68
2022/06/29 23:19:53;;;;;;;2.53;2.13;;;;;;;;;;10573929;28;20043;-68
2022/06/29 23:24:55;;;;;;;4.72;2.78;;;;;;;;;;10573085;28;20047;-68
2022/06/29 23:29:57;;;;;;;2.80;2.60;;;;;;;;;;10573386;28;20048;-68
2022/06/29 23:35:01;;;;;;;2.50;2.30;;;;;;;;;;10572907;28;20236;-68
2022/06/29 23:40:03;;;;;;;2.80;2.55;;;;;;;;;;10573376;28;20231;-69
2022/06/29 23:45:06;;;;;;;3.25;2.95;;;;;;;;;;10543068;28;20044;-68
2022/06/29 23:50:10;;;;;;;3.13;2.92;;;;;;;;;;10546576;28;20123;-68
2022/06/29 23:55:13;;;;;;;2.88;2.67;;;;;;;;;;10565663;28;20036;-69
